Terminal Aerodrome Forecast
Issued by NWS

Home | Current Version | Previous Version | Text Only | Print | Product List | Glossary On
Versions: 1 2 3 4 5 6 7 8 9 10 11 12
746
FTUS45 KFGZ 202333
TAFGCN
TAF
KGCN 202333Z 2100/2124 20007KT P6SM VCTS SCT080CB
     FM210200 VRB03KT P6SM SCT090
     FM211800 21006KT P6SM BKN150
      TEMPO 2119/2123 P6SM TSRA BKN050CB=

USA.gov is the U.S. government's official web portal to all federal, state and local government web resources and services.